createdAt,value
2023-04-26T00:00:46.642Z,101792.63
2023-04-26T00:03:15.918Z,101795.97
2023-04-26T00:05:47.214Z,101786.19
2023-04-26T00:08:17.064Z,101797.88
2023-04-26T00:10:46.291Z,101793.16
2023-04-26T00:13:15.736Z,101795.41
2023-04-26T00:15:45.429Z,101795.97
2023-04-26T00:18:16.126Z,101795.88
2023-04-26T00:20:47.550Z,101801.66
2023-04-26T00:23:17.649Z,101801.53
2023-04-26T00:25:50.026Z,101802.31
2023-04-26T00:28:22.392Z,101797.00
2023-04-26T00:31:01.848Z,101802.03
2023-04-26T00:33:31.143Z,101797.53
2023-04-26T00:36:01.771Z,101794.81
2023-04-26T00:38:34.707Z,101801.56
2023-04-26T00:41:06.159Z,101801.53
2023-04-26T00:43:36.035Z,101794.41
2023-04-26T00:46:07.003Z,101789.13
2023-04-26T00:48:37.522Z,101793.25
2023-04-26T00:51:10.123Z,101795.09
2023-04-26T00:53:39.628Z,101797.00
2023-04-26T00:56:11.894Z,101798.38
2023-04-26T00:58:43.645Z,101805.03
2023-04-26T01:01:13.753Z,101812.50
2023-04-26T01:03:57.074Z,101813.84
2023-04-26T01:06:32.033Z,101811.38
2023-04-26T01:09:06.124Z,101801.34
2023-04-26T01:11:37.456Z,101791.25
2023-04-26T01:14:08.851Z,101788.97
2023-04-26T01:16:38.939Z,101784.31
2023-04-26T01:19:13.285Z,101793.59
2023-04-26T01:21:44.813Z,101790.00
2023-04-26T01:24:22.866Z,101800.09
2023-04-26T01:26:56.012Z,101802.47
2023-04-26T01:29:25.775Z,101795.38
2023-04-26T01:31:56.785Z,101800.56
2023-04-26T01:34:33.318Z,101800.56
2023-04-26T01:37:03.364Z,101812.84
2023-04-26T01:39:33.854Z,101806.84
2023-04-26T01:42:06.534Z,101798.81
2023-04-26T01:44:36.021Z,101800.28
2023-04-26T01:47:07.629Z,101797.50
2023-04-26T01:49:37.515Z,101807.72
2023-04-26T01:52:07.320Z,101802.69
2023-04-26T01:54:38.146Z,101803.13
2023-04-26T01:57:08.069Z,101802.75
2023-04-26T01:59:38.452Z,101800.69
2023-04-26T02:02:08.067Z,101811.53
2023-04-26T02:04:39.096Z,101811.03
2023-04-26T02:07:09.388Z,101809.63
2023-04-26T02:09:44.321Z,101812.50
2023-04-26T02:12:14.244Z,101798.84
2023-04-26T02:14:43.647Z,101803.28
2023-04-26T02:17:13.384Z,101796.25
2023-04-26T02:19:42.906Z,101800.28
2023-04-26T02:22:14.826Z,101802.50
2023-04-26T02:24:53.668Z,101797.81
2023-04-26T02:27:23.546Z,101796.84
2023-04-26T02:29:55.785Z,101797.81
2023-04-26T02:32:28.354Z,101809.25
2023-04-26T02:35:00.207Z,101809.53
2023-04-26T02:37:32.599Z,101806.09
2023-04-26T02:40:06.355Z,101798.31
2023-04-26T02:42:36.245Z,101801.53
2023-04-26T02:45:09.439Z,101797.88
2023-04-26T02:47:39.382Z,101796.03
2023-04-26T02:50:13.689Z,101792.50
2023-04-26T02:52:43.431Z,101792.34
2023-04-26T02:55:15.085Z,101795.50
2023-04-26T02:57:44.305Z,101803.00
2023-04-26T03:00:17.298Z,101784.59
2023-04-26T03:02:47.167Z,101793.16
2023-04-26T03:05:16.713Z,101789.50
2023-04-26T03:07:46.891Z,101791.28
2023-04-26T03:10:21.251Z,101791.22
2023-04-26T03:12:52.195Z,101794.50
2023-04-26T03:15:22.182Z,101789.13
2023-04-26T03:17:53.028Z,101788.84
2023-04-26T03:20:23.560Z,101783.31
2023-04-26T03:22:54.531Z,101781.41
2023-04-26T03:25:25.961Z,101780.34
2023-04-26T03:27:56.612Z,101775.94
2023-04-26T03:30:27.157Z,101773.28
2023-04-26T03:33:02.590Z,101769.75
2023-04-26T03:35:32.061Z,101772.19
2023-04-26T03:38:04.790Z,101773.97
2023-04-26T03:40:35.261Z,101774.75
2023-04-26T03:43:06.027Z,101777.56
2023-04-26T03:45:36.169Z,101778.81
2023-04-26T03:48:07.280Z,101779.28
2023-04-26T03:50:36.684Z,101779.69
2023-04-26T03:53:07.110Z,101794.81
2023-04-26T03:55:38.560Z,101794.34
2023-04-26T03:58:08.696Z,101794.69
2023-04-26T04:00:44.181Z,101784.56
2023-04-26T04:03:16.403Z,101782.69
2023-04-26T04:05:46.196Z,101792.50
2023-04-26T04:08:16.172Z,101788.69
2023-04-26T04:10:47.633Z,101781.72
2023-04-26T04:13:17.737Z,101799.00
2023-04-26T04:15:48.497Z,101798.13
2023-04-26T04:18:23.931Z,101794.63
2023-04-26T04:20:54.072Z,101788.63
2023-04-26T04:23:24.252Z,101789.59
2023-04-26T04:25:58.236Z,101794.91
2023-04-26T04:28:27.997Z,101793.25
2023-04-26T04:30:58.626Z,101784.66
2023-04-26T04:33:36.933Z,101797.78
2023-04-26T04:36:07.002Z,101794.53
2023-04-26T04:38:36.398Z,101797.59
2023-04-26T04:41:08.723Z,101797.19
2023-04-26T04:43:37.686Z,101802.81
2023-04-26T04:46:15.470Z,101800.56
2023-04-26T04:48:44.620Z,101800.78
2023-04-26T04:51:14.486Z,101789.91
2023-04-26T04:53:44.816Z,101781.69
2023-04-26T04:56:20.912Z,101789.84
2023-04-26T04:58:52.026Z,101787.59
2023-04-26T05:01:29.150Z,101781.13
2023-04-26T05:03:58.848Z,101785.84
2023-04-26T05:06:30.025Z,101791.44
2023-04-26T05:08:59.901Z,101784.84
2023-04-26T05:11:38.762Z,101789.50
2023-04-26T05:14:08.493Z,101795.88
2023-04-26T05:16:38.890Z,101793.59
2023-04-26T05:19:09.775Z,101782.66
2023-04-26T05:21:38.851Z,101788.97
2023-04-26T05:24:07.852Z,101798.78
2023-04-26T05:26:40.827Z,101800.06
2023-04-26T05:29:13.262Z,101813.38
2023-04-26T05:31:42.848Z,101817.81
2023-04-26T05:34:13.278Z,101810.72
2023-04-26T05:36:42.653Z,101812.16
2023-04-26T05:39:15.089Z,101804.19
2023-04-26T05:41:46.964Z,101804.34
2023-04-26T05:44:17.098Z,101804.56
2023-04-26T05:46:47.486Z,101808.38
2023-04-26T05:49:18.346Z,101807.81
2023-04-26T05:51:48.045Z,101815.78
2023-04-26T05:54:17.059Z,101814.09
2023-04-26T05:56:47.682Z,101820.97
2023-04-26T05:59:16.452Z,101823.41
2023-04-26T06:01:45.837Z,101824.00
2023-04-26T06:04:15.593Z,101825.44
2023-04-26T06:06:45.075Z,101826.09
2023-04-26T06:09:13.872Z,101834.66
2023-04-26T06:11:43.138Z,101826.00
2023-04-26T06:14:26.948Z,101829.81
2023-04-26T06:16:59.335Z,101832.97
2023-04-26T06:19:29.328Z,101828.38
2023-04-26T06:22:00.275Z,101829.00
2023-04-26T06:24:29.449Z,101839.09
2023-04-26T06:26:59.343Z,101834.44
2023-04-26T06:29:34.610Z,101831.75
2023-04-26T06:32:04.910Z,101829.13
2023-04-26T06:34:33.622Z,101840.25
2023-04-26T06:37:02.955Z,101846.06
2023-04-26T06:39:37.623Z,101848.22
2023-04-26T06:42:08.780Z,101847.75
2023-04-26T06:44:40.349Z,101856.66
2023-04-26T06:47:10.092Z,101846.25
2023-04-26T06:49:40.260Z,101841.81
2023-04-26T06:52:10.297Z,101846.09
2023-04-26T06:54:53.666Z,101854.63
2023-04-26T06:57:26.512Z,101858.75
2023-04-26T06:59:58.365Z,101847.97
2023-04-26T07:02:28.404Z,101858.13
2023-04-26T07:05:02.251Z,101850.19
2023-04-26T07:07:32.984Z,101855.41
2023-04-26T07:10:02.818Z,101849.53
2023-04-26T07:12:41.952Z,101847.47
2023-04-26T07:15:14.947Z,101835.03
2023-04-26T07:17:44.366Z,101839.13
2023-04-26T07:20:16.110Z,101836.13
2023-04-26T07:22:46.591Z,101838.97
2023-04-26T07:25:16.180Z,101841.16
2023-04-26T07:27:45.250Z,101837.19
2023-04-26T07:30:17.001Z,101829.75
2023-04-26T07:32:47.697Z,101839.81
2023-04-26T07:35:20.805Z,101839.38
2023-04-26T07:37:51.702Z,101828.38
2023-04-26T07:40:23.154Z,101829.53
2023-04-26T07:42:53.099Z,101827.44
2023-04-26T07:45:25.373Z,101836.41
2023-04-26T07:47:56.267Z,101841.56
2023-04-26T07:50:27.601Z,101832.84
2023-04-26T07:52:57.633Z,101836.41
2023-04-26T07:55:31.558Z,101838.28
2023-04-26T07:58:01.415Z,101847.13
2023-04-26T08:00:39.446Z,101844.50
2023-04-26T08:03:09.587Z,101848.88
2023-04-26T08:05:38.911Z,101843.66
2023-04-26T08:08:08.638Z,101848.97
2023-04-26T08:10:52.607Z,101849.03
2023-04-26T08:13:41.415Z,101850.72
2023-04-26T08:16:16.345Z,101853.47
2023-04-26T08:18:58.434Z,101854.50
2023-04-26T08:21:31.351Z,101859.88
2023-04-26T08:24:03.357Z,101849.63
2023-04-26T08:26:32.178Z,101854.25
2023-04-26T08:29:02.052Z,101857.25
2023-04-26T08:31:38.798Z,101862.94
2023-04-26T08:34:09.329Z,101872.81
2023-04-26T08:36:53.697Z,101865.00
2023-04-26T08:39:31.888Z,101856.44
2023-04-26T08:42:11.950Z,101858.38
2023-04-26T08:44:57.556Z,101869.91
2023-04-26T08:47:48.449Z,101862.97
2023-04-26T08:50:27.692Z,101862.22
2023-04-26T08:52:59.614Z,101860.63
2023-04-26T08:55:32.781Z,101858.91
2023-04-26T08:58:05.849Z,101856.13
2023-04-26T09:00:37.073Z,101863.72
2023-04-26T09:03:07.992Z,101855.94
2023-04-26T09:05:39.790Z,101864.59
2023-04-26T09:08:10.995Z,101871.97
2023-04-26T09:10:40.924Z,101875.22
2023-04-26T09:13:10.077Z,101882.34
2023-04-26T09:15:40.363Z,101877.66
2023-04-26T09:18:22.306Z,101881.25
2023-04-26T09:21:08.026Z,101878.41
2023-04-26T09:23:37.869Z,101883.31
2023-04-26T09:26:26.649Z,101887.56
2023-04-26T09:29:21.419Z,101886.34
2023-04-26T09:31:54.746Z,101883.22
2023-04-26T09:34:26.585Z,101883.34
2023-04-26T09:36:57.523Z,101891.22
2023-04-26T09:39:34.586Z,101896.53
2023-04-26T09:42:03.756Z,101893.91
2023-04-26T09:44:33.708Z,101889.63
2023-04-26T09:47:13.113Z,101892.25
2023-04-26T09:49:53.189Z,101892.88
2023-04-26T09:52:23.145Z,101890.00
2023-04-26T09:54:55.553Z,101892.38
2023-04-26T09:57:26.339Z,101893.84
2023-04-26T09:59:57.772Z,101895.34
2023-04-26T10:02:30.534Z,101906.28
2023-04-26T10:05:02.268Z,101909.13
2023-04-26T10:07:33.612Z,101922.84
2023-04-26T10:10:07.676Z,101916.69
2023-04-26T10:13:03.429Z,101909.84
2023-04-26T10:15:51.355Z,101907.06
2023-04-26T10:18:36.543Z,101912.22
2023-04-26T10:21:17.962Z,101907.19
2023-04-26T10:24:14.935Z,101903.56
2023-04-26T10:27:01.700Z,101901.78
2023-04-26T10:30:18.056Z,101889.59
2023-04-26T10:33:24.602Z,101886.94
2023-04-26T10:36:26.085Z,101887.00
2023-04-26T10:39:30.276Z,101878.94
2023-04-26T10:42:43.597Z,101869.84
2023-04-26T10:45:34.972Z,101872.22
2023-04-26T10:48:36.494Z,101875.28
2023-04-26T10:51:46.137Z,101866.00
2023-04-26T10:54:15.708Z,101874.19
2023-04-26T10:56:55.115Z,101868.34
2023-04-26T10:59:39.645Z,101869.47
2023-04-26T11:02:13.906Z,101875.59
2023-04-26T11:04:55.557Z,101886.75
2023-04-26T11:07:42.879Z,101880.47
2023-04-26T11:10:12.985Z,101876.06
2023-04-26T11:12:44.479Z,101879.47
2023-04-26T11:15:17.171Z,101882.00
2023-04-26T11:17:46.593Z,101883.66
2023-04-26T11:20:21.078Z,101875.72
2023-04-26T11:22:51.612Z,101874.72
2023-04-26T11:25:20.109Z,101883.38
2023-04-26T11:27:48.494Z,101892.88
2023-04-26T11:30:21.226Z,101889.16
2023-04-26T11:32:49.757Z,101887.91
2023-04-26T11:35:18.684Z,101904.09
2023-04-26T11:37:49.644Z,101900.09
2023-04-26T11:40:21.103Z,101915.50
2023-04-26T11:42:49.721Z,101928.22
2023-04-26T11:45:18.623Z,101930.88
2023-04-26T11:47:47.896Z,101934.88
2023-04-26T11:50:16.861Z,101939.91
2023-04-26T11:52:45.404Z,101935.91
2023-04-26T11:55:14.557Z,101938.34
2023-04-26T11:57:44.420Z,101929.06
2023-04-26T12:00:16.272Z,101922.78
2023-04-26T12:02:50.209Z,101915.44
2023-04-26T12:05:27.029Z,101914.06
2023-04-26T12:07:57.968Z,101914.25
2023-04-26T12:10:28.469Z,101910.50
2023-04-26T12:13:01.120Z,101911.19
2023-04-26T12:15:32.142Z,101909.97
2023-04-26T12:18:07.489Z,101906.13
2023-04-26T12:20:37.850Z,101901.47
2023-04-26T12:23:09.000Z,101904.72
2023-04-26T12:25:40.387Z,101898.25
2023-04-26T12:28:14.172Z,101906.47
2023-04-26T12:30:42.777Z,101919.94
2023-04-26T12:33:17.130Z,101916.66
2023-04-26T12:35:47.894Z,101914.22
2023-04-26T12:38:16.837Z,101914.38
2023-04-26T12:40:46.951Z,101911.97
2023-04-26T12:43:17.112Z,101904.22
2023-04-26T12:45:46.201Z,101911.44
2023-04-26T12:48:14.847Z,101901.03
2023-04-26T12:50:44.071Z,101908.94
2023-04-26T12:53:12.890Z,101913.44
2023-04-26T12:55:41.412Z,101907.41
2023-04-26T12:58:09.789Z,101914.44
2023-04-26T13:00:39.555Z,101916.09
2023-04-26T13:03:08.335Z,101913.41
2023-04-26T13:05:37.029Z,101916.91
2023-04-26T13:08:05.523Z,101916.91
2023-04-26T13:10:34.196Z,101910.75
2023-04-26T13:13:02.866Z,101908.94
2023-04-26T13:15:31.435Z,101913.25
2023-04-26T13:18:01.362Z,101918.38
2023-04-26T13:20:30.929Z,101921.63
2023-04-26T13:22:59.716Z,101922.28
2023-04-26T13:25:28.555Z,101919.38
2023-04-26T13:27:57.297Z,101920.91
2023-04-26T13:30:27.202Z,101917.19
2023-04-26T13:32:56.979Z,101914.44
2023-04-26T13:35:28.490Z,101919.50
2023-04-26T13:37:57.129Z,101928.69
2023-04-26T13:40:26.116Z,101930.75
2023-04-26T13:42:54.628Z,101936.78
2023-04-26T13:45:22.960Z,101923.31
2023-04-26T13:47:51.352Z,101926.94
2023-04-26T13:50:20.366Z,101924.22
2023-04-26T13:52:51.097Z,101917.34
2023-04-26T13:55:19.741Z,101922.53
2023-04-26T13:57:48.082Z,101926.00
2023-04-26T14:00:18.518Z,101929.59
2023-04-26T14:02:47.079Z,101924.44
2023-04-26T14:05:16.800Z,101926.91
2023-04-26T14:07:45.517Z,101921.34
2023-04-26T14:10:15.424Z,101927.28
2023-04-26T14:12:43.838Z,101920.34
2023-04-26T14:15:13.198Z,101930.94
2023-04-26T14:17:42.158Z,101924.13
2023-04-26T14:20:12.393Z,101932.03
2023-04-26T14:22:40.830Z,101927.78
2023-04-26T14:25:10.530Z,101934.91
2023-04-26T14:27:40.699Z,101935.88
2023-04-26T14:30:10.714Z,101927.25
2023-04-26T14:32:39.181Z,101931.00
2023-04-26T14:35:08.429Z,101931.19
2023-04-26T14:37:36.884Z,101931.50
2023-04-26T14:40:08.077Z,101930.78
2023-04-26T14:42:36.821Z,101925.66
2023-04-26T14:45:10.127Z,101929.16
2023-04-26T14:47:38.719Z,101930.81
2023-04-26T14:50:10.207Z,101930.63
2023-04-26T14:52:38.997Z,101920.63
2023-04-26T14:55:09.014Z,101926.47
2023-04-26T14:57:37.352Z,101922.06
2023-04-26T15:00:14.538Z,101926.56
2023-04-26T15:02:43.115Z,101933.72
2023-04-26T15:05:12.159Z,101934.75
2023-04-26T15:07:41.083Z,101934.78
2023-04-26T15:10:11.199Z,101934.00
2023-04-26T15:12:39.658Z,101931.50
2023-04-26T15:15:10.715Z,101936.13
2023-04-26T15:17:39.210Z,101926.66
2023-04-26T15:20:10.235Z,101928.59
2023-04-26T15:22:39.100Z,101932.34
2023-04-26T15:25:09.648Z,101931.72
2023-04-26T15:27:38.303Z,101929.25
2023-04-26T15:30:09.986Z,101931.25
2023-04-26T15:32:38.471Z,101923.59
2023-04-26T15:35:08.087Z,101930.78
2023-04-26T15:37:38.821Z,101922.13
2023-04-26T15:40:10.604Z,101920.56
2023-04-26T15:42:39.816Z,101923.50
2023-04-26T15:45:11.381Z,101923.84
2023-04-26T15:47:39.905Z,101924.06
2023-04-26T15:50:09.808Z,101930.34
2023-04-26T15:52:39.684Z,101927.97
2023-04-26T15:55:09.475Z,101945.47
2023-04-26T15:57:38.673Z,101936.59
2023-04-26T16:00:13.998Z,101952.25
2023-04-26T16:02:44.586Z,101946.84
2023-04-26T16:05:13.651Z,101945.03
2023-04-26T16:07:42.450Z,101951.28
2023-04-26T16:10:13.872Z,101949.78
2023-04-26T16:12:44.815Z,101948.31
2023-04-26T16:15:14.822Z,101952.16
2023-04-26T16:17:44.534Z,101947.56
2023-04-26T16:20:13.547Z,101944.50
2023-04-26T16:22:42.277Z,101944.41
2023-04-26T16:25:11.748Z,101943.31
2023-04-26T16:27:40.251Z,101951.84
2023-04-26T16:30:10.369Z,101948.06
2023-04-26T16:32:40.127Z,101953.78
2023-04-26T16:35:09.967Z,101954.31
2023-04-26T16:37:39.954Z,101955.94
2023-04-26T16:40:11.565Z,101946.97
2023-04-26T16:42:43.322Z,101942.59
2023-04-26T16:45:16.133Z,101940.25
2023-04-26T16:47:46.558Z,101942.91
2023-04-26T16:50:15.068Z,101936.31
2023-04-26T16:52:44.550Z,101932.31
2023-04-26T16:55:13.105Z,101932.38
2023-04-26T16:57:41.976Z,101932.28
2023-04-26T17:00:12.571Z,101931.84
2023-04-26T17:02:42.098Z,101930.25
2023-04-26T17:05:12.367Z,101934.97
2023-04-26T17:07:40.904Z,101938.38
2023-04-26T17:10:10.890Z,101939.41
2023-04-26T17:12:39.458Z,101935.84
2023-04-26T17:15:09.735Z,101947.16
2023-04-26T17:17:38.371Z,101944.34
2023-04-26T17:20:10.129Z,101945.94
2023-04-26T17:22:41.258Z,101940.97
2023-04-26T17:25:10.501Z,101941.06
2023-04-26T17:27:39.100Z,101941.91
2023-04-26T17:30:09.385Z,101941.16
2023-04-26T17:32:37.940Z,101950.53
2023-04-26T17:35:07.644Z,101955.06
2023-04-26T17:37:36.167Z,101950.81
2023-04-26T17:40:08.279Z,101944.63
2023-04-26T17:42:36.979Z,101956.09
2023-04-26T17:45:06.769Z,101959.38
2023-04-26T17:47:35.217Z,101959.75
2023-04-26T17:50:03.834Z,101948.84
2023-04-26T17:52:32.582Z,101955.78
2023-04-26T17:55:01.499Z,101955.72
2023-04-26T17:57:31.325Z,101956.66
2023-04-26T17:59:59.803Z,101957.66
2023-04-26T18:02:28.518Z,101961.34
2023-04-26T18:04:57.447Z,101962.38
2023-04-26T18:07:26.555Z,101964.25
2023-04-26T18:09:54.997Z,101963.72
2023-04-26T18:12:23.612Z,101962.19
2023-04-26T18:14:53.425Z,101964.06
2023-04-26T18:17:22.335Z,101971.78
2023-04-26T18:19:51.139Z,101971.16
2023-04-26T18:22:20.421Z,101979.94
2023-04-26T18:24:48.836Z,101980.81
2023-04-26T18:27:17.272Z,101980.72
2023-04-26T18:29:45.858Z,101984.25
2023-04-26T18:32:15.710Z,101980.09
2023-04-26T18:34:44.247Z,101985.50
2023-04-26T18:37:12.726Z,101979.53
2023-04-26T18:39:41.201Z,101987.59
2023-04-26T18:42:09.555Z,101989.59
2023-04-26T18:44:37.961Z,101995.16
2023-04-26T18:47:06.653Z,101990.28
2023-04-26T18:49:36.462Z,101988.13
2023-04-26T18:52:08.736Z,101985.88
2023-04-26T18:54:38.423Z,101995.06
2023-04-26T18:57:06.886Z,101999.00
2023-04-26T18:59:35.357Z,101992.53
2023-04-26T19:02:05.312Z,102004.34
2023-04-26T19:04:35.436Z,102005.75
2023-04-26T19:07:04.005Z,101997.56
2023-04-26T19:09:42.810Z,102012.13
2023-04-26T19:12:19.194Z,102007.50
2023-04-26T19:14:47.629Z,102007.34
2023-04-26T19:17:16.065Z,102010.75
2023-04-26T19:19:46.030Z,102019.53
2023-04-26T19:22:14.491Z,102026.56
2023-04-26T19:24:42.839Z,102018.84
2023-04-26T19:27:11.516Z,102034.53
2023-04-26T19:29:39.868Z,102031.00
2023-04-26T19:32:10.142Z,102034.44
2023-04-26T19:34:40.757Z,102033.50
2023-04-26T19:37:10.581Z,102036.06
2023-04-26T19:39:38.936Z,102028.22
2023-04-26T19:42:07.486Z,102036.84
2023-04-26T19:44:36.032Z,102029.81
2023-04-26T19:47:05.289Z,102034.09
2023-04-26T19:49:33.853Z,102034.78
2023-04-26T19:52:03.104Z,102039.69
2023-04-26T19:54:34.044Z,102039.25
2023-04-26T19:57:03.877Z,102033.63
2023-04-26T19:59:32.370Z,102034.84
2023-04-26T20:02:01.046Z,102044.06
2023-04-26T20:04:29.587Z,102042.88
2023-04-26T20:06:58.519Z,102047.75
2023-04-26T20:09:27.421Z,102047.50
2023-04-26T20:11:58.176Z,102046.41
2023-04-26T20:14:27.480Z,102047.16
2023-04-26T20:16:56.150Z,102051.19
2023-04-26T20:19:24.625Z,102052.56
2023-04-26T20:21:53.015Z,102064.34
2023-04-26T20:24:23.444Z,102054.41
2023-04-26T20:26:52.251Z,102057.50
2023-04-26T20:29:22.294Z,102055.44
2023-04-26T20:31:51.103Z,102055.16
2023-04-26T20:34:19.701Z,102060.06
2023-04-26T20:36:51.198Z,102055.41
2023-04-26T20:39:21.595Z,102055.97
2023-04-26T20:41:50.195Z,102059.09
2023-04-26T20:44:19.055Z,102059.72
2023-04-26T20:46:48.923Z,102056.84
2023-04-26T20:49:17.272Z,102061.81
2023-04-26T20:51:45.972Z,102063.31
2023-04-26T20:54:14.322Z,102070.03
2023-04-26T20:56:42.767Z,102063.75
2023-04-26T20:59:11.804Z,102059.25
2023-04-26T21:01:40.458Z,102068.59
2023-04-26T21:04:10.377Z,102055.50
2023-04-26T21:06:39.440Z,102058.78
2023-04-26T21:09:08.480Z,102056.94
2023-04-26T21:11:37.234Z,102061.16
2023-04-26T21:14:06.871Z,102057.56
2023-04-26T21:16:35.399Z,102056.53
2023-04-26T21:19:05.134Z,102061.72
2023-04-26T21:21:35.074Z,102052.91
2023-04-26T21:24:04.240Z,102061.59
2023-04-26T21:26:32.488Z,102064.06
2023-04-26T21:29:01.004Z,102073.47
2023-04-26T21:31:29.436Z,102062.13
2023-04-26T21:33:58.106Z,102068.16
2023-04-26T21:36:26.762Z,102068.91
2023-04-26T21:38:59.288Z,102066.25
2023-04-26T21:41:27.747Z,102057.50
2023-04-26T21:43:57.214Z,102059.13
2023-04-26T21:46:26.506Z,102053.81
2023-04-26T21:48:55.240Z,102056.19
2023-04-26T21:51:23.742Z,102053.41
2023-04-26T21:53:52.384Z,102057.63
2023-04-26T21:56:22.232Z,102051.34
2023-04-26T21:58:50.606Z,102057.31
2023-04-26T22:01:19.137Z,102056.25
2023-04-26T22:03:47.666Z,102069.25
2023-04-26T22:06:16.151Z,102063.97
2023-04-26T22:08:44.590Z,102060.34
2023-04-26T22:11:13.193Z,102061.13
2023-04-26T22:13:42.921Z,102066.31
2023-04-26T22:16:11.387Z,102066.13
2023-04-26T22:18:39.847Z,102066.97
2023-04-26T22:21:08.335Z,102064.31
2023-04-26T22:23:36.751Z,102078.09
2023-04-26T22:26:05.205Z,102071.88
2023-04-26T22:28:33.665Z,102073.50
2023-04-26T22:31:03.509Z,102076.84
2023-04-26T22:33:31.996Z,102080.19
2023-04-26T22:36:00.456Z,102078.34
2023-04-26T22:38:29.052Z,102084.34
2023-04-26T22:40:57.646Z,102086.06
2023-04-26T22:43:26.306Z,102088.50
2023-04-26T22:45:54.804Z,102095.34
2023-04-26T22:48:24.641Z,102097.06
2023-04-26T22:50:53.120Z,102094.28
2023-04-26T22:53:22.666Z,102092.44
2023-04-26T22:55:51.872Z,102090.59
2023-04-26T22:58:24.090Z,102100.09
2023-04-26T23:00:53.094Z,102093.09
2023-04-26T23:03:23.759Z,102096.53
2023-04-26T23:05:52.808Z,102094.72
2023-04-26T23:08:22.804Z,102088.66
2023-04-26T23:10:51.703Z,102098.91
2023-04-26T23:13:21.813Z,102093.72
2023-04-26T23:15:50.613Z,102100.53
2023-04-26T23:18:20.857Z,102084.88
2023-04-26T23:20:51.732Z,102094.38
2023-04-26T23:23:20.511Z,102098.47
2023-04-26T23:25:51.239Z,102101.84
2023-04-26T23:28:20.471Z,102106.03
2023-04-26T23:30:50.794Z,102110.28
2023-04-26T23:33:20.220Z,102104.16
2023-04-26T23:35:50.586Z,102105.72
2023-04-26T23:38:20.767Z,102105.47
2023-04-26T23:40:49.340Z,102105.34
2023-04-26T23:43:17.747Z,102106.00
2023-04-26T23:45:48.248Z,102104.06
2023-04-26T23:48:17.961Z,102108.19
2023-04-26T23:50:46.345Z,102109.75
2023-04-26T23:53:16.218Z,102112.19
2023-04-26T23:55:44.616Z,102120.63
2023-04-26T23:58:13.013Z,102113.66
